sensor_id;sensor_type;location;lat;lon;timestamp;pressure;altitude;pressure_sealevel;temperature;humidity
2036;BME280;23642;42.658;23.350;2023-07-13T00:01:28;54908.66;;;-146.31;64.55
2036;BME280;23642;42.658;23.350;2023-07-13T00:03:57;54918.97;;;-146.31;65.35
2036;BME280;23642;42.658;23.350;2023-07-13T00:06:24;54914.84;;;-146.31;65.77
2036;BME280;23642;42.658;23.350;2023-07-13T00:08:51;54931.38;;;-146.31;66.07
2036;BME280;23642;42.658;23.350;2023-07-13T00:11:18;54908.66;;;-146.31;66.07
2036;BME280;23642;42.658;23.350;2023-07-13T00:13:45;54881.78;;;-146.31;66.59
2036;BME280;23642;42.658;23.350;2023-07-13T00:16:14;54885.94;;;-146.31;67.08
2036;BME280;23642;42.658;23.350;2023-07-13T00:18:41;54898.31;;;-146.31;67.58
2036;BME280;23642;42.658;23.350;2023-07-13T00:21:09;54888.00;;;-146.31;67.38
2036;BME280;23642;42.658;23.350;2023-07-13T00:23:37;54898.31;;;-146.31;66.71
2036;BME280;23642;42.658;23.350;2023-07-13T00:26:08;54881.78;;;-146.31;66.03
2036;BME280;23642;42.658;23.350;2023-07-13T00:28:41;54877.66;;;-146.31;67.22
2036;BME280;23642;42.658;23.350;2023-07-13T00:31:09;54852.88;;;-146.31;67.96
2036;BME280;23642;42.658;23.350;2023-07-13T00:33:36;54869.41;;;-146.31;68.41
2036;BME280;23642;42.658;23.350;2023-07-13T00:36:04;54869.41;;;-146.31;68.98
2036;BME280;23642;42.658;23.350;2023-07-13T00:38:32;54877.66;;;-146.31;69.30
2036;BME280;23642;42.658;23.350;2023-07-13T00:41:00;54881.78;;;-146.31;70.03
2036;BME280;23642;42.658;23.350;2023-07-13T00:43:29;54848.75;;;-146.31;70.17
2036;BME280;23642;42.658;23.350;2023-07-13T00:46:16;54867.34;;;-146.31;70.18
2036;BME280;23642;42.658;23.350;2023-07-13T00:48:45;54881.78;;;-146.31;70.23
2036;BME280;23642;42.658;23.350;2023-07-13T00:51:14;54840.50;;;-146.31;70.60
2036;BME280;23642;42.658;23.350;2023-07-13T00:53:49;54828.09;;;-146.31;71.35
2036;BME280;23642;42.658;23.350;2023-07-13T00:56:20;54790.94;;;-146.31;72.11
2036;BME280;23642;42.658;23.350;2023-07-13T00:58:47;54793.00;;;-146.31;71.11
2036;BME280;23642;42.658;23.350;2023-07-13T01:01:15;54751.69;;;-146.31;71.56
2036;BME280;23642;42.658;23.350;2023-07-13T01:03:43;54786.81;;;-146.31;71.70
2036;BME280;23642;42.658;23.350;2023-07-13T01:06:10;54768.22;;;-146.31;71.55
2036;BME280;23642;42.658;23.350;2023-07-13T01:08:37;54766.16;;;-146.31;72.27
2036;BME280;23642;42.658;23.350;2023-07-13T01:11:06;54658.78;;;-146.31;75.17
2036;BME280;23642;42.658;23.350;2023-07-13T01:13:34;54625.75;;;-146.31;72.21
2036;BME280;23642;42.658;23.350;2023-07-13T01:16:05;54654.66;;;-146.31;71.75
2036;BME280;23642;42.658;23.350;2023-07-13T01:18:39;54627.81;;;-146.31;72.52
2036;BME280;23642;42.658;23.350;2023-07-13T01:21:07;54642.25;;;-146.31;73.48
2036;BME280;23642;42.658;23.350;2023-07-13T01:23:34;54629.88;;;-146.31;74.33
2036;BME280;23642;42.658;23.350;2023-07-13T01:26:01;54572.03;;;-146.31;75.86
2036;BME280;23642;42.658;23.350;2023-07-13T01:28:28;54555.53;;;-146.31;76.35
2036;BME280;23642;42.658;23.350;2023-07-13T01:31:03;54433.69;;;-146.31;78.34
2036;BME280;23642;42.658;23.350;2023-07-13T01:33:30;54225.16;;;-146.31;80.09
2036;BME280;23642;42.658;23.350;2023-07-13T01:35:57;54103.34;;;-146.31;79.46
2036;BME280;23642;42.658;23.350;2023-07-13T01:38:26;54175.59;;;-146.31;77.35
2036;BME280;23642;42.658;23.350;2023-07-13T01:40:53;54210.72;;;-146.31;76.46
2036;BME280;23642;42.658;23.350;2023-07-13T01:43:20;54225.16;;;-146.31;77.20
2036;BME280;23642;42.658;23.350;2023-07-13T01:45:47;54245.81;;;-146.31;75.75
2036;BME280;23642;42.658;23.350;2023-07-13T01:48:14;54245.81;;;-146.31;76.61
2036;BME280;23642;42.658;23.350;2023-07-13T01:50:41;54231.34;;;-146.31;77.15
2036;BME280;23642;42.658;23.350;2023-07-13T01:53:09;54276.78;;;-146.31;77.20
2036;BME280;23642;42.658;23.350;2023-07-13T01:55:37;54243.75;;;-146.31;77.82
2036;BME280;23642;42.658;23.350;2023-07-13T01:58:04;54268.53;;;-146.31;76.68
2036;BME280;23642;42.658;23.350;2023-07-13T02:00:34;54264.38;;;-146.31;77.10
2036;BME280;23642;42.658;23.350;2023-07-13T02:03:01;54235.47;;;-146.31;77.41
2036;BME280;23642;42.658;23.350;2023-07-13T02:05:28;54241.69;;;-146.31;77.47
2036;BME280;23642;42.658;23.350;2023-07-13T02:07:55;54241.69;;;-146.31;77.95
2036;BME280;23642;42.658;23.350;2023-07-13T02:10:22;54196.25;;;-146.31;78.10
2036;BME280;23642;42.658;23.350;2023-07-13T02:12:50;54196.25;;;-146.31;77.42
2036;BME280;23642;42.658;23.350;2023-07-13T02:15:17;54198.31;;;-146.31;77.55
2036;BME280;23642;42.658;23.350;2023-07-13T02:17:44;54167.34;;;-146.31;77.84
2036;BME280;23642;42.658;23.350;2023-07-13T02:20:11;54173.53;;;-146.31;77.70
2036;BME280;23642;42.658;23.350;2023-07-13T02:22:38;54163.22;;;-146.31;76.85
2036;BME280;23642;42.658;23.350;2023-07-13T02:25:05;54167.34;;;-146.31;77.51
2036;BME280;23642;42.658;23.350;2023-07-13T02:27:32;54161.16;;;-146.31;77.07
2036;BME280;23642;42.658;23.350;2023-07-13T02:30:01;54157.03;;;-146.31;76.95
2036;BME280;23642;42.658;23.350;2023-07-13T02:32:28;54157.03;;;-146.31;75.42
2036;BME280;23642;42.658;23.350;2023-07-13T02:34:55;54142.56;;;-146.31;76.84
2036;BME280;23642;42.658;23.350;2023-07-13T02:37:22;54179.75;;;-146.31;75.85
2036;BME280;23642;42.658;23.350;2023-07-13T02:39:48;54183.88;;;-146.31;76.77
2036;BME280;23642;42.658;23.350;2023-07-13T02:42:17;54142.56;;;-146.31;77.34
2036;BME280;23642;42.658;23.350;2023-07-13T02:44:44;54157.03;;;-146.31;78.65
2036;BME280;23642;42.658;23.350;2023-07-13T02:47:12;54103.34;;;-146.31;78.99
2036;BME280;23642;42.658;23.350;2023-07-13T02:49:39;54086.81;;;-146.31;79.92
2036;BME280;23642;42.658;23.350;2023-07-13T02:52:06;54068.25;;;-146.31;80.12
2036;BME280;23642;42.658;23.350;2023-07-13T02:54:33;54051.72;;;-146.31;79.47
2036;BME280;23642;42.658;23.350;2023-07-13T02:57:00;54047.59;;;-146.31;79.72
2036;BME280;23642;42.658;23.350;2023-07-13T02:59:27;54000.13;;;-146.31;80.09
2036;BME280;23642;42.658;23.350;2023-07-13T03:01:54;53931.97;;;-146.31;77.84
2036;BME280;23642;42.658;23.350;2023-07-13T03:04:22;53958.81;;;-146.31;78.28
2036;BME280;23642;42.658;23.350;2023-07-13T03:06:49;53967.09;;;-146.31;79.25
2036;BME280;23642;42.658;23.350;2023-07-13T03:09:16;53965.03;;;-146.31;79.15
2036;BME280;23642;42.658;23.350;2023-07-13T03:11:43;53967.09;;;-146.31;79.15
2036;BME280;23642;42.658;23.350;2023-07-13T03:14:10;53956.75;;;-146.31;78.96
2036;BME280;23642;42.658;23.350;2023-07-13T03:16:37;53952.63;;;-146.31;78.17
2036;BME280;23642;42.658;23.350;2023-07-13T03:19:04;53960.88;;;-146.31;76.28
2036;BME280;23642;42.658;23.350;2023-07-13T03:21:32;53915.47;;;-146.31;77.57
2036;BME280;23642;42.658;23.350;2023-07-13T03:23:59;53913.41;;;-146.31;77.60
2036;BME280;23642;42.658;23.350;2023-07-13T03:26:26;53894.81;;;-146.31;78.01
2036;BME280;23642;42.658;23.350;2023-07-13T03:28:53;53878.31;;;-146.31;78.52
2036;BME280;23642;42.658;23.350;2023-07-13T03:31:22;53841.16;;;-146.31;78.36
2036;BME280;23642;42.658;23.350;2023-07-13T03:33:49;53845.28;;;-146.31;77.85
2036;BME280;23642;42.658;23.350;2023-07-13T03:36:19;53853.53;;;-146.31;78.28
2036;BME280;23642;42.658;23.350;2023-07-13T03:38:52;53847.34;;;-146.31;77.94
2036;BME280;23642;42.658;23.350;2023-07-13T03:41:20;53859.72;;;-146.31;77.15
2036;BME280;23642;42.658;23.350;2023-07-13T03:43:48;53851.47;;;-146.31;77.07
2036;BME280;23642;42.658;23.350;2023-07-13T03:46:17;53853.53;;;-146.31;75.92
2036;BME280;23642;42.658;23.350;2023-07-13T03:48:46;53851.47;;;-146.31;76.53
2036;BME280;23642;42.658;23.350;2023-07-13T03:51:15;53818.44;;;-146.31;76.30
2036;BME280;23642;42.658;23.350;2023-07-13T03:53:44;53814.31;;;-146.31;76.29
2036;BME280;23642;42.658;23.350;2023-07-13T03:56:13;53737.94;;;-146.31;76.48
2036;BME280;23642;42.658;23.350;2023-07-13T03:58:42;53735.88;;;-146.31;75.88
2036;BME280;23642;42.658;23.350;2023-07-13T04:01:10;53706.97;;;-146.31;75.09
2036;BME280;23642;42.658;23.350;2023-07-13T04:03:37;53709.03;;;-146.31;75.37
2036;BME280;23642;42.658;23.350;2023-07-13T04:06:12;53684.25;;;-146.31;75.89
2036;BME280;23642;42.658;23.350;2023-07-13T04:08:40;53645.03;;;-146.31;76.91
2036;BME280;23642;42.658;23.350;2023-07-13T04:11:07;53649.16;;;-146.31;77.24
2036;BME280;23642;42.658;23.350;2023-07-13T04:13:38;53618.19;;;-146.31;77.37
2036;BME280;23642;42.658;23.350;2023-07-13T04:16:05;53581.03;;;-146.31;77.28
2036;BME280;23642;42.658;23.350;2023-07-13T04:18:32;53568.66;;;-146.31;77.80
2036;BME280;23642;42.658;23.350;2023-07-13T04:20:59;53506.72;;;-146.31;77.00
2036;BME280;23642;42.658;23.350;2023-07-13T04:23:30;53471.63;;;-146.31;76.64
2036;BME280;23642;42.658;23.350;2023-07-13T04:25:57;53521.16;;;-146.31;75.77
2036;BME280;23642;42.658;23.350;2023-07-13T04:28:25;53533.56;;;-146.31;75.44
2036;BME280;23642;42.658;23.350;2023-07-13T04:30:54;53523.22;;;-146.31;74.74
2036;BME280;23642;42.658;23.350;2023-07-13T04:33:21;53552.13;;;-146.31;73.65
2036;BME280;23642;42.658;23.350;2023-07-13T04:35:53;53614.06;;;-146.31;73.35
2036;BME280;23642;42.658;23.350;2023-07-13T04:38:26;53603.75;;;-146.31;72.13
2036;BME280;23642;42.658;23.350;2023-07-13T04:40:55;53581.03;;;-146.31;71.60
2036;BME280;23642;42.658;23.350;2023-07-13T04:43:22;53581.03;;;-146.31;71.04
2036;BME280;23642;42.658;23.350;2023-07-13T04:45:50;53581.03;;;-146.31;71.15
2036;BME280;23642;42.658;23.350;2023-07-13T04:48:19;53539.75;;;-146.31;71.75
2036;BME280;23642;42.658;23.350;2023-07-13T04:50:46;53500.53;;;-146.31;72.14
2036;BME280;23642;42.658;23.350;2023-07-13T04:53:13;53490.22;;;-146.31;72.78
2036;BME280;23642;42.658;23.350;2023-07-13T04:55:40;53446.84;;;-146.31;73.03
2036;BME280;23642;42.658;23.350;2023-07-13T04:58:07;53415.91;;;-146.31;72.90
2036;BME280;23642;42.658;23.350;2023-07-13T05:00:36;53455.13;;;-146.31;72.61
2036;BME280;23642;42.658;23.350;2023-07-13T05:03:03;53420.03;;;-146.31;71.88
2036;BME280;23642;42.658;23.350;2023-07-13T05:05:32;53389.06;;;-146.31;69.52
2036;BME280;23642;42.658;23.350;2023-07-13T05:08:01;53353.97;;;-146.31;69.01
2036;BME280;23642;42.658;23.350;2023-07-13T05:10:31;53353.97;;;-146.31;67.94
2036;BME280;23642;42.658;23.350;2023-07-13T05:12:58;53372.53;;;-146.31;68.48
2036;BME280;23642;42.658;23.350;2023-07-13T05:15:29;53329.19;;;-146.31;69.03
2036;BME280;23642;42.658;23.350;2023-07-13T05:17:56;53294.09;;;-146.31;66.85
2036;BME280;23642;42.658;23.350;2023-07-13T05:20:26;53287.91;;;-146.31;65.75
2036;BME280;23642;42.658;23.350;2023-07-13T05:22:55;53279.66;;;-146.31;64.89
2036;BME280;23642;42.658;23.350;2023-07-13T05:29:02;53201.22;;;-146.31;64.00
2036;BME280;23642;42.658;23.350;2023-07-13T05:32:40;53149.63;;;-146.31;62.68
2036;BME280;23642;42.658;23.350;2023-07-13T05:34:55;53209.47;;;-146.31;61.37
2036;BME280;23642;42.658;23.350;2023-07-13T05:37:22;53234.25;;;-146.31;60.97
2036;BME280;23642;42.658;23.350;2023-07-13T05:39:50;53234.25;;;-146.31;60.78
2036;BME280;23642;42.658;23.350;2023-07-13T05:42:17;53217.72;;;-146.31;60.68
2036;BME280;23642;42.658;23.350;2023-07-13T05:44:46;53180.59;;;-146.31;61.16
2036;BME280;23642;42.658;23.350;2023-07-13T05:47:17;53095.97;;;-146.31;60.52
2036;BME280;23642;42.658;23.350;2023-07-13T05:49:51;53102.16;;;-146.31;60.57
2036;BME280;23642;42.658;23.350;2023-07-13T05:52:21;53015.47;;;-146.31;59.65
2036;BME280;23642;42.658;23.350;2023-07-13T05:54:57;53145.50;;;-146.31;57.79
2036;BME280;23642;42.658;23.350;2023-07-13T05:57:24;53135.19;;;-146.31;58.43
2036;BME280;23642;42.658;23.350;2023-07-13T05:59:51;53052.63;;;-146.31;58.55
2036;BME280;23642;42.658;23.350;2023-07-13T06:02:23;53019.59;;;-146.31;57.66
2036;BME280;23642;42.658;23.350;2023-07-13T06:04:51;53044.34;;;-146.31;57.04
2036;BME280;23642;42.658;23.350;2023-07-13T06:07:18;53040.22;;;-146.31;57.13
2036;BME280;23642;42.658;23.350;2023-07-13T06:09:45;52982.44;;;-146.31;57.62
2036;BME280;23642;42.658;23.350;2023-07-13T06:12:16;53021.66;;;-146.31;55.94
2036;BME280;23642;42.658;23.350;2023-07-13T06:14:57;53069.13;;;-146.31;54.04
2036;BME280;23642;42.658;23.350;2023-07-13T06:17:31;53164.06;;;-146.31;53.36
2036;BME280;23642;42.658;23.350;2023-07-13T06:20:33;53164.06;;;-146.31;52.98
2036;BME280;23642;42.658;23.350;2023-07-13T06:26:41;53195.03;;;-146.31;51.91
2036;BME280;23642;42.658;23.350;2023-07-13T06:29:43;53261.09;;;-146.31;51.81
2036;BME280;23642;42.658;23.350;2023-07-13T06:32:28;53242.50;;;-146.31;49.99
2036;BME280;23642;42.658;23.350;2023-07-13T06:34:57;53345.72;;;-146.31;48.60
2036;BME280;23642;42.658;23.350;2023-07-13T06:37:48;53256.94;;;-146.31;49.11
2036;BME280;23642;42.658;23.350;2023-07-13T06:40:18;53269.34;;;-146.31;48.29
2036;BME280;23642;42.658;23.350;2023-07-13T06:42:54;53368.41;;;-146.31;49.21
2036;BME280;23642;42.658;23.350;2023-07-13T06:45:35;53323.00;;;-146.31;49.08
2036;BME280;23642;42.658;23.350;2023-07-13T06:48:19;53384.94;;;-146.31;48.46
2036;BME280;23642;42.658;23.350;2023-07-13T06:50:48;53289.97;;;-146.31;49.69
2036;BME280;23642;42.658;23.350;2023-07-13T06:53:37;53296.16;;;-146.31;48.54
2036;BME280;23642;42.658;23.350;2023-07-13T06:56:17;53275.53;;;-146.31;48.24
2036;BME280;23642;42.658;23.350;2023-07-13T06:58:55;53236.31;;;-146.31;46.75
2036;BME280;23642;42.658;23.350;2023-07-13T07:04:34;53215.66;;;-146.31;46.04
2036;BME280;23642;42.658;23.350;2023-07-13T07:07:32;53281.72;;;-146.31;46.69
2036;BME280;23642;42.658;23.350;2023-07-13T07:10:02;53275.53;;;-146.31;47.17
2036;BME280;23642;42.658;23.350;2023-07-13T07:12:30;53209.47;;;-146.31;46.51
2036;BME280;23642;42.658;23.350;2023-07-13T07:14:58;53176.44;;;-146.31;45.84
2036;BME280;23642;42.658;23.350;2023-07-13T07:17:35;53209.47;;;-146.31;46.11
2036;BME280;23642;42.658;23.350;2023-07-13T07:20:18;53176.44;;;-146.31;45.96
2036;BME280;23642;42.658;23.350;2023-07-13T07:22:49;53089.75;;;-146.31;46.30
2036;BME280;23642;42.658;23.350;2023-07-13T07:25:33;53085.63;;;-146.31;45.58
2036;BME280;23642;42.658;23.350;2023-07-13T07:31:19;53263.16;;;-146.31;45.61
2036;BME280;23642;42.658;23.350;2023-07-13T07:33:57;53143.44;;;-146.31;45.92
2036;BME280;23642;42.658;23.350;2023-07-13T07:36:25;53106.28;;;-146.31;45.78
2036;BME280;23642;42.658;23.350;2023-07-13T07:38:59;53221.88;;;-146.31;46.74
2036;BME280;23642;42.658;23.350;2023-07-13T07:41:30;53100.09;;;-146.31;46.26
2036;BME280;23642;42.658;23.350;2023-07-13T07:44:11;52965.94;;;-146.31;45.51
2036;BME280;23642;42.658;23.350;2023-07-13T07:46:39;53007.22;;;-146.31;45.11
2036;BME280;23642;42.658;23.350;2023-07-13T07:56:04;52924.66;;;-146.31;46.11
2036;BME280;23642;42.658;23.350;2023-07-13T07:58:46;52850.34;;;-146.31;45.49
2036;BME280;23642;42.658;23.350;2023-07-13T08:04:33;52994.81;;;-146.31;45.11
2036;BME280;23642;42.658;23.350;2023-07-13T08:07:36;52817.31;;;-146.31;46.94
2036;BME280;23642;42.658;23.350;2023-07-13T08:10:17;52835.91;;;-146.31;45.56
2036;BME280;23642;42.658;23.350;2023-07-13T08:13:01;52780.19;;;-146.31;45.17
2036;BME280;23642;42.658;23.350;2023-07-13T08:15:31;52852.41;;;-146.31;43.99
2036;BME280;23642;42.658;23.350;2023-07-13T08:18:21;52804.94;;;-146.31;44.40
2036;BME280;23642;42.658;23.350;2023-07-13T08:20:56;52864.78;;;-146.31;44.41
2036;BME280;23642;42.658;23.350;2023-07-13T08:23:53;52807.00;;;-146.31;44.34
2036;BME280;23642;42.658;23.350;2023-07-13T08:26:24;52747.16;;;-146.31;43.45
2036;BME280;23642;42.658;23.350;2023-07-13T08:29:04;52757.47;;;-146.31;43.77
2036;BME280;23642;42.658;23.350;2023-07-13T08:31:41;52856.53;;;-146.31;43.09
2036;BME280;23642;42.658;23.350;2023-07-13T08:34:09;52747.16;;;-146.31;43.81
2036;BME280;23642;42.658;23.350;2023-07-13T08:36:52;52833.84;;;-146.31;43.56
2036;BME280;23642;42.658;23.350;2023-07-13T08:39:20;52833.84;;;-146.31;43.33
2036;BME280;23642;42.658;23.350;2023-07-13T08:42:01;52705.88;;;-146.31;42.77
2036;BME280;23642;42.658;23.350;2023-07-13T08:44:56;52648.09;;;-146.31;42.60
2036;BME280;23642;42.658;23.350;2023-07-13T08:47:24;52802.88;;;-146.31;42.97
2036;BME280;23642;42.658;23.350;2023-07-13T08:49:55;52718.25;;;-146.31;42.89
2036;BME280;23642;42.658;23.350;2023-07-13T08:52:42;52726.53;;;-146.31;43.09
2036;BME280;23642;42.658;23.350;2023-07-13T08:55:34;52732.72;;;-146.31;42.43
2036;BME280;23642;42.658;23.350;2023-07-13T08:58:18;52707.94;;;-146.31;42.69
2036;BME280;23642;42.658;23.350;2023-07-13T09:00:52;52662.53;;;-146.31;42.12
2036;BME280;23642;42.658;23.350;2023-07-13T09:03:40;52623.34;;;-146.31;41.51
2036;BME280;23642;42.658;23.350;2023-07-13T09:06:55;52705.88;;;-146.31;42.58
2036;BME280;23642;42.658;23.350;2023-07-13T09:10:00;52641.91;;;-146.31;42.02
2036;BME280;23642;42.658;23.350;2023-07-13T09:13:05;52590.31;;;-146.31;41.74
2036;BME280;23642;42.658;23.350;2023-07-13T09:15:53;52720.31;;;-146.31;41.69
2036;BME280;23642;42.658;23.350;2023-07-13T09:18:27;52679.06;;;-146.31;42.14
2036;BME280;23642;42.658;23.350;2023-07-13T09:21:13;52524.28;;;-146.31;41.26
2036;BME280;23642;42.658;23.350;2023-07-13T09:27:08;52441.72;;;-146.31;41.16
2036;BME280;23642;42.658;23.350;2023-07-13T09:30:21;52223.00;;;-146.31;41.55
2036;BME280;23642;42.658;23.350;2023-07-13T09:35:34;52123.94;;;-146.31;39.90
2036;BME280;23642;42.658;23.350;2023-07-13T09:38:13;52154.91;;;-146.31;40.16
2036;BME280;23642;42.658;23.350;2023-07-13T09:41:38;52132.19;;;-146.31;39.24
2036;BME280;23642;42.658;23.350;2023-07-13T09:44:15;52332.34;;;-146.31;39.07
2036;BME280;23642;42.658;23.350;2023-07-13T09:47:13;52289.03;;;-146.31;38.89
2036;BME280;23642;42.658;23.350;2023-07-13T09:50:01;52408.72;;;-146.31;39.62
2036;BME280;23642;42.658;23.350;2023-07-13T09:52:46;52311.72;;;-146.31;39.23
2036;BME280;23642;42.658;23.350;2023-07-13T09:55:30;52375.69;;;-146.31;39.17
2036;BME280;23642;42.658;23.350;2023-07-13T09:58:10;52274.59;;;-146.31;38.92
2036;BME280;23642;42.658;23.350;2023-07-13T10:00:59;52355.06;;;-146.31;37.73
2036;BME280;23642;42.658;23.350;2023-07-13T10:03:52;52231.25;;;-146.31;37.81
2036;BME280;23642;42.658;23.350;2023-07-13T10:06:29;52278.72;;;-146.31;37.74
2036;BME280;23642;42.658;23.350;2023-07-13T10:09:41;52198.22;;;-146.31;38.05
2036;BME280;23642;42.658;23.350;2023-07-13T10:12:23;52280.78;;;-146.31;37.52
2036;BME280;23642;42.658;23.350;2023-07-13T10:14:55;52196.16;;;-146.31;37.68
2036;BME280;23642;42.658;23.350;2023-07-13T10:17:27;52235.38;;;-146.31;37.09
2036;BME280;23642;42.658;23.350;2023-07-13T10:20:28;52169.34;;;-146.31;36.87
2036;BME280;23642;42.658;23.350;2023-07-13T10:23:27;51989.81;;;-146.31;36.32
2036;BME280;23642;42.658;23.350;2023-07-13T10:26:16;52097.13;;;-146.31;36.16
2036;BME280;23642;42.658;23.350;2023-07-13T10:29:04;52041.41;;;-146.31;35.87
2036;BME280;23642;42.658;23.350;2023-07-13T10:31:52;52057.91;;;-146.31;35.61
2036;BME280;23642;42.658;23.350;2023-07-13T10:34:21;52146.66;;;-146.31;35.67
2036;BME280;23642;42.658;23.350;2023-07-13T10:39:33;52057.91;;;-146.31;35.92
2036;BME280;23642;42.658;23.350;2023-07-13T10:42:28;52769.84;;;-146.31;29.54
2036;BME280;23642;42.658;23.350;2023-07-13T10:45:33;52462.38;;;-146.31;30.88
2036;BME280;23642;42.658;23.350;2023-07-13T10:48:10;52466.50;;;-146.31;29.59
2036;BME280;23642;42.658;23.350;2023-07-13T10:51:08;52501.56;;;-146.31;29.33
2036;BME280;23642;42.658;23.350;2023-07-13T10:54:14;52491.25;;;-146.31;29.15
2036;BME280;23642;42.658;23.350;2023-07-13T10:56:48;52557.28;;;-146.31;29.15
2036;BME280;23642;42.658;23.350;2023-07-13T10:59:34;52648.09;;;-146.31;28.71
2036;BME280;23642;42.658;23.350;2023-07-13T11:02:25;52582.06;;;-146.31;28.82
2036;BME280;23642;42.658;23.350;2023-07-13T11:05:17;52495.38;;;-146.31;29.17
2036;BME280;23642;42.658;23.350;2023-07-13T11:08:19;52586.19;;;-146.31;28.60
2036;BME280;23642;42.658;23.350;2023-07-13T11:10:53;52627.47;;;-146.31;28.42
2036;BME280;23642;42.658;23.350;2023-07-13T11:13:58;52664.59;;;-146.31;27.57
2036;BME280;23642;42.658;23.350;2023-07-13T11:16:50;52643.97;;;-146.31;28.26
2036;BME280;23642;42.658;23.350;2023-07-13T11:21:52;52524.28;;;-146.31;28.15
2036;BME280;23642;42.658;23.350;2023-07-13T11:22:50;52540.78;;;-146.31;28.34
2036;BME280;23642;42.658;23.350;2023-07-13T11:25:35;52606.81;;;-146.31;28.29
2036;BME280;23642;42.658;23.350;2023-07-13T11:28:49;52419.03;;;-146.31;29.89
2036;BME280;23642;42.658;23.350;2023-07-13T11:31:25;52297.28;;;-146.31;30.62
2036;BME280;23642;42.658;23.350;2023-07-13T11:34:14;52433.47;;;-146.31;28.50
2036;BME280;23642;42.658;23.350;2023-07-13T11:36:45;52433.47;;;-146.31;28.62
2036;BME280;23642;42.658;23.350;2023-07-13T11:39:51;52276.66;;;-146.31;28.40
2036;BME280;23642;42.658;23.350;2023-07-13T11:42:44;52371.56;;;-146.31;28.60
2036;BME280;23642;42.658;23.350;2023-07-13T11:45:35;52342.69;;;-146.31;29.17
2036;BME280;23642;42.658;23.350;2023-07-13T11:48:21;52379.81;;;-146.31;29.15
2036;BME280;23642;42.658;23.350;2023-07-13T11:50:56;52582.06;;;-146.31;28.98
2036;BME280;23642;42.658;23.350;2023-07-13T11:53:41;52544.91;;;-146.31;28.65
2036;BME280;23642;42.658;23.350;2023-07-13T11:56:29;52344.75;;;-146.31;28.37
2036;BME280;23642;42.658;23.350;2023-07-13T11:59:07;52522.22;;;-146.31;28.05
2036;BME280;23642;42.658;23.350;2023-07-13T12:02:29;52503.63;;;-146.31;28.45
2036;BME280;23642;42.658;23.350;2023-07-13T12:05:06;52365.38;;;-146.31;28.65
2036;BME280;23642;42.658;23.350;2023-07-13T12:07:50;52483.00;;;-146.31;27.91
2036;BME280;23642;42.658;23.350;2023-07-13T12:10:55;52371.56;;;-146.31;28.21
2036;BME280;23642;42.658;23.350;2023-07-13T12:13:26;52317.91;;;-146.31;28.55
2036;BME280;23642;42.658;23.350;2023-07-13T12:16:34;52419.03;;;-146.31;28.59
2036;BME280;23642;42.658;23.350;2023-07-13T12:19:41;52322.03;;;-146.31;27.31
2036;BME280;23642;42.658;23.350;2023-07-13T12:22:11;52357.13;;;-146.31;27.55
2036;BME280;23642;42.658;23.350;2023-07-13T12:25:47;52386.00;;;-146.31;27.74
2036;BME280;23642;42.658;23.350;2023-07-13T12:28:39;52196.16;;;-146.31;27.78
2036;BME280;23642;42.658;23.350;2023-07-13T12:31:48;51917.63;;;-146.31;28.21
2036;BME280;23642;42.658;23.350;2023-07-13T12:34:27;51859.84;;;-146.31;27.42
2036;BME280;23642;42.658;23.350;2023-07-13T12:40:15;52086.81;;;-146.31;28.12
2036;BME280;23642;42.658;23.350;2023-07-13T12:43:03;52012.53;;;-146.31;28.23
2036;BME280;23642;42.658;23.350;2023-07-13T12:46:24;51837.16;;;-146.31;27.62
2036;BME280;23642;42.658;23.350;2023-07-13T12:50:20;51649.41;;;-146.31;27.60
2036;BME280;23642;42.658;23.350;2023-07-13T12:52:24;51550.38;;;-146.31;27.57
2036;BME280;23642;42.658;23.350;2023-07-13T12:55:15;50945.94;;;-146.31;30.33
2036;BME280;23642;42.658;23.350;2023-07-13T12:58:26;50997.50;;;-146.31;29.29
2036;BME280;23642;42.658;23.350;2023-07-13T13:01:35;51092.41;;;-146.31;29.57
2036;BME280;23642;42.658;23.350;2023-07-13T13:04:34;51032.56;;;-146.31;28.68
2036;BME280;23642;42.658;23.350;2023-07-13T13:07:11;50828.38;;;-146.31;29.29
2036;BME280;23642;42.658;23.350;2023-07-13T13:13:42;50877.88;;;-146.31;28.13
2036;BME280;23642;42.658;23.350;2023-07-13T13:16:16;50857.25;;;-146.31;27.99
2036;BME280;23642;42.658;23.350;2023-07-13T13:19:20;50948.00;;;-146.31;27.37
2036;BME280;23642;42.658;23.350;2023-07-13T13:22:10;50799.50;;;-146.31;28.43
2036;BME280;23642;42.658;23.350;2023-07-13T13:24:41;50620.06;;;-146.31;28.62
2036;BME280;23642;42.658;23.350;2023-07-13T13:27:15;50822.19;;;-146.31;28.12
2036;BME280;23642;42.658;23.350;2023-07-13T13:30:01;50580.88;;;-146.31;28.40
2036;BME280;23642;42.658;23.350;2023-07-13T13:32:44;50735.56;;;-146.31;27.40
2036;BME280;23642;42.658;23.350;2023-07-13T13:35:13;50646.88;;;-146.31;27.85
2036;BME280;23642;42.658;23.350;2023-07-13T13:37:42;50797.44;;;-146.31;27.21
2036;BME280;23642;42.658;23.350;2023-07-13T13:40:17;50712.88;;;-146.31;27.47
2036;BME280;23642;42.658;23.350;2023-07-13T13:45:47;50566.44;;;-146.31;27.52
2036;BME280;23642;42.658;23.350;2023-07-13T13:48:18;50646.88;;;-146.31;27.10
2036;BME280;23642;42.658;23.350;2023-07-13T13:50:47;50768.56;;;-146.31;26.40
2036;BME280;23642;42.658;23.350;2023-07-13T13:53:18;51127.47;;;-146.31;26.12
2036;BME280;23642;42.658;23.350;2023-07-13T13:55:55;51117.16;;;-146.31;27.40
2036;BME280;23642;42.658;23.350;2023-07-13T13:58:24;50908.81;;;-146.31;27.44
2036;BME280;23642;42.658;23.350;2023-07-13T14:01:15;51055.25;;;-146.31;26.59
2036;BME280;23642;42.658;23.350;2023-07-13T14:03:50;51304.88;;;-146.31;27.05
2036;BME280;23642;42.658;23.350;2023-07-13T14:06:40;51119.22;;;-146.31;27.17
2036;BME280;23642;42.658;23.350;2023-07-13T14:09:16;51011.94;;;-146.31;26.64
2036;BME280;23642;42.658;23.350;2023-07-13T14:11:46;51119.22;;;-146.31;26.17
2036;BME280;23642;42.658;23.350;2023-07-13T14:14:17;51139.84;;;-146.31;26.55